createdAt,value
2022-10-01T00:01:18.771Z,12.30
2022-10-01T00:03:47.913Z,13.77
2022-10-01T00:06:17.632Z,10.83
2022-10-01T00:08:48.764Z,9.63
2022-10-01T00:11:23.573Z,8.00
2022-10-01T00:13:51.713Z,8.77
2022-10-01T00:16:24.660Z,8.63
2022-10-01T00:18:53.703Z,7.30
2022-10-01T00:21:23.694Z,7.95
2022-10-01T00:24:02.248Z,7.63
2022-10-01T00:26:32.854Z,10.60
2022-10-01T00:29:03.054Z,10.07
2022-10-01T00:31:30.491Z,8.97
2022-10-01T00:33:58.794Z,7.57
2022-10-01T00:36:26.707Z,8.90
2022-10-01T00:38:54.274Z,8.02
2022-10-01T00:41:20.916Z,6.57
2022-10-01T00:43:55.280Z,7.60
2022-10-01T00:46:27.156Z,8.18
2022-10-01T00:49:21.648Z,7.43
2022-10-01T00:51:52.296Z,10.30
2022-10-01T00:54:39.577Z,9.05
2022-10-01T00:57:07.769Z,8.57
2022-10-01T00:59:35.925Z,8.55
2022-10-01T01:02:02.682Z,8.88
2022-10-01T01:04:29.596Z,7.60
2022-10-01T01:07:03.070Z,8.15
2022-10-01T01:09:32.913Z,7.83
2022-10-01T01:12:14.357Z,8.23
2022-10-01T01:15:00.065Z,9.52
2022-10-01T01:17:42.829Z,9.18
2022-10-01T01:20:18.801Z,10.43
2022-10-01T01:22:55.605Z,8.10
2022-10-01T01:25:30.463Z,9.23
2022-10-01T01:28:25.709Z,9.75
2022-10-01T01:30:57.221Z,11.57
2022-10-01T01:33:26.025Z,13.10
2022-10-01T01:36:00.997Z,17.03
2022-10-01T01:38:33.160Z,14.90
2022-10-01T01:41:02.045Z,10.68
2022-10-01T01:43:33.268Z,10.30
2022-10-01T01:46:02.827Z,9.60
2022-10-01T01:48:33.129Z,12.43
2022-10-01T01:51:08.298Z,11.52
2022-10-01T01:53:35.731Z,9.50
2022-10-01T01:56:02.718Z,10.82
2022-10-01T01:58:29.548Z,11.75
2022-10-01T02:00:56.595Z,11.33
2022-10-01T02:03:26.740Z,10.77
2022-10-01T02:06:17.163Z,10.73
2022-10-01T02:09:15.210Z,9.52
2022-10-01T02:11:59.533Z,10.73
2022-10-01T02:14:38.294Z,10.43
2022-10-01T02:17:29.722Z,10.15
2022-10-01T02:20:02.094Z,10.90
2022-10-01T02:22:42.365Z,14.20
2022-10-01T02:25:11.302Z,10.95
2022-10-01T02:27:50.971Z,12.77
2022-10-01T02:30:18.470Z,12.15
2022-10-01T02:32:49.158Z,10.68
2022-10-01T02:35:19.486Z,11.32
2022-10-01T02:37:50.357Z,10.25
2022-10-01T02:40:20.726Z,9.80
2022-10-01T02:42:52.167Z,11.57
2022-10-01T02:45:23.561Z,12.38
2022-10-01T02:48:05.984Z,19.45
2022-10-01T02:50:42.673Z,15.98
2022-10-01T02:53:19.569Z,20.73
2022-10-01T02:55:47.682Z,24.08
2022-10-01T02:58:14.639Z,20.88
2022-10-01T03:00:41.322Z,22.10
2022-10-01T03:03:07.975Z,20.80
2022-10-01T03:05:35.350Z,22.60
2022-10-01T03:08:02.422Z,22.52
2022-10-01T03:10:29.122Z,30.67
2022-10-01T03:12:56.091Z,28.52
2022-10-01T03:15:22.810Z,25.88
2022-10-01T03:17:53.135Z,25.33
2022-10-01T03:20:20.874Z,24.90
2022-10-01T03:22:48.065Z,28.45
2022-10-01T03:25:15.534Z,29.48
2022-10-01T03:27:43.350Z,22.60
2022-10-01T03:30:10.708Z,31.93
2022-10-01T03:32:37.511Z,27.58
2022-10-01T03:35:04.977Z,26.33
2022-10-01T03:37:31.729Z,28.80
2022-10-01T03:39:58.364Z,24.98
2022-10-01T03:42:25.313Z,29.70
2022-10-01T03:44:52.988Z,25.60
2022-10-01T03:47:19.787Z,26.60
2022-10-01T03:49:46.667Z,26.83
2022-10-01T03:52:13.305Z,23.83
2022-10-01T03:54:40.032Z,38.93
2022-10-01T03:57:07.191Z,23.73
2022-10-01T03:59:33.863Z,28.80
2022-10-01T04:02:00.633Z,26.60
2022-10-01T04:04:28.940Z,27.48
2022-10-01T04:06:55.885Z,34.70
2022-10-01T04:09:22.610Z,29.83
2022-10-01T04:11:49.578Z,30.17
2022-10-01T04:14:16.271Z,33.92
2022-10-01T04:16:43.428Z,29.63
2022-10-01T04:19:10.330Z,28.73
2022-10-01T04:21:39.039Z,30.42
2022-10-01T04:24:05.932Z,31.85
2022-10-01T04:26:32.897Z,37.88
2022-10-01T04:28:59.589Z,33.00
2022-10-01T04:31:26.539Z,37.87
2022-10-01T04:33:55.452Z,34.13
2022-10-01T04:36:22.905Z,82.57
2022-10-01T04:38:57.864Z,95.60
2022-10-01T04:41:26.692Z,45.65
2022-10-01T04:43:53.357Z,36.90
2022-10-01T04:46:20.139Z,242.13
2022-10-01T04:48:49.161Z,211.40
2022-10-01T04:51:17.221Z,153.52
2022-10-01T04:53:44.183Z,95.05
2022-10-01T04:56:11.175Z,67.33
2022-10-01T04:58:38.507Z,75.35
2022-10-01T05:01:05.296Z,61.15
2022-10-01T05:03:32.311Z,46.75
2022-10-01T05:05:59.030Z,36.63
2022-10-01T05:08:25.695Z,31.33
2022-10-01T05:10:53.180Z,32.53
2022-10-01T05:13:19.882Z,30.70
2022-10-01T05:15:49.145Z,27.67
2022-10-01T05:18:16.100Z,27.65
2022-10-01T05:20:42.832Z,26.30
2022-10-01T05:23:09.510Z,32.63
2022-10-01T05:25:36.398Z,30.02
2022-10-01T05:28:06.120Z,32.75
2022-10-01T05:30:34.287Z,28.17
2022-10-01T05:33:03.350Z,32.57
2022-10-01T05:35:31.995Z,30.83
2022-10-01T05:38:01.192Z,35.85
2022-10-01T05:40:29.473Z,31.42
2022-10-01T05:42:58.402Z,71.43
2022-10-01T05:45:27.782Z,50.77
2022-10-01T05:48:02.430Z,59.38
2022-10-01T05:50:33.839Z,57.78
2022-10-01T05:53:01.947Z,52.78
2022-10-01T05:55:34.460Z,35.50
2022-10-01T05:58:05.842Z,33.77
2022-10-01T06:00:33.887Z,25.27
2022-10-01T06:03:02.364Z,31.58
2022-10-01T06:05:30.918Z,33.33
2022-10-01T06:07:58.894Z,39.88
2022-10-01T06:10:25.785Z,35.67
2022-10-01T06:12:53.010Z,29.90
2022-10-01T06:15:20.042Z,29.80
2022-10-01T06:17:46.888Z,31.25
2022-10-01T06:20:16.005Z,33.95
2022-10-01T06:22:43.967Z,30.53
2022-10-01T06:25:15.661Z,29.90
2022-10-01T06:27:43.134Z,35.58
2022-10-01T06:30:10.623Z,41.10
2022-10-01T06:32:37.713Z,39.63
2022-10-01T06:35:04.928Z,26.53
2022-10-01T06:37:32.124Z,27.52
2022-10-01T06:39:58.766Z,40.33
2022-10-01T06:42:25.415Z,56.58
2022-10-01T06:44:52.397Z,39.30
2022-10-01T06:47:19.087Z,24.63
2022-10-01T06:49:47.760Z,22.02
2022-10-01T06:52:33.683Z,15.80
2022-10-01T06:55:01.498Z,17.65
2022-10-01T06:57:29.097Z,14.23
2022-10-01T06:59:55.970Z,13.70
2022-10-01T07:02:28.070Z,12.48
2022-10-01T07:04:59.368Z,13.23
2022-10-01T07:07:31.054Z,12.07
2022-10-01T07:09:59.189Z,15.10
2022-10-01T07:12:26.457Z,11.27
2022-10-01T07:14:53.984Z,12.48
2022-10-01T07:17:22.184Z,12.75
2022-10-01T07:19:49.069Z,12.52
2022-10-01T07:22:15.787Z,11.15
2022-10-01T07:24:43.471Z,13.67
2022-10-01T07:27:10.181Z,14.55
2022-10-01T07:29:36.882Z,13.95
2022-10-01T07:32:08.525Z,19.77
2022-10-01T07:34:38.177Z,20.95
2022-10-01T07:37:05.100Z,29.33
2022-10-01T07:39:32.268Z,27.92
2022-10-01T07:41:59.297Z,22.88
2022-10-01T07:44:29.481Z,46.72
2022-10-01T07:46:56.833Z,27.70
2022-10-01T07:49:25.192Z,17.07
2022-10-01T07:51:53.295Z,17.27
2022-10-01T07:54:21.763Z,31.98
2022-10-01T07:56:50.346Z,33.35
2022-10-01T07:59:18.048Z,22.63
2022-10-01T08:01:48.759Z,21.83
2022-10-01T08:04:34.225Z,16.50
2022-10-01T08:07:01.136Z,19.20
2022-10-01T08:09:27.934Z,16.90
2022-10-01T08:11:54.620Z,17.13
2022-10-01T08:14:21.645Z,16.00
2022-10-01T08:16:48.514Z,14.02
2022-10-01T08:19:15.591Z,15.27
2022-10-01T08:21:42.940Z,15.43
2022-10-01T08:24:09.749Z,21.50
2022-10-01T08:26:36.525Z,14.97
2022-10-01T08:29:03.541Z,12.68
2022-10-01T08:31:30.333Z,11.23
2022-10-01T08:33:57.560Z,11.75
2022-10-01T08:36:24.367Z,19.08
2022-10-01T08:38:51.091Z,11.10
2022-10-01T08:41:37.142Z,13.88
2022-10-01T08:44:05.889Z,13.68
2022-10-01T08:46:36.457Z,13.45
2022-10-01T08:49:07.234Z,9.43
2022-10-01T08:51:40.187Z,10.07
2022-10-01T08:54:33.770Z,10.80
2022-10-01T08:57:04.566Z,12.02
2022-10-01T08:59:40.311Z,8.82
2022-10-01T09:02:22.796Z,10.02
2022-10-01T09:04:55.838Z,12.43
2022-10-01T09:07:51.914Z,12.48
2022-10-01T09:10:42.129Z,15.32
2022-10-01T09:13:27.030Z,11.45
2022-10-01T09:16:20.788Z,16.35
2022-10-01T09:19:06.556Z,15.17
2022-10-01T09:21:51.957Z,13.40
2022-10-01T09:24:50.766Z,16.98
2022-10-01T09:27:23.095Z,14.80
2022-10-01T09:29:55.074Z,27.70
2022-10-01T09:32:27.396Z,47.57
2022-10-01T09:34:54.885Z,23.55
2022-10-01T09:37:37.799Z,23.75
2022-10-01T09:40:32.504Z,20.33
2022-10-01T09:42:59.234Z,21.73
2022-10-01T09:45:26.309Z,23.50
2022-10-01T09:47:58.238Z,27.40
2022-10-01T09:50:34.618Z,22.48
2022-10-01T09:53:02.571Z,16.90
2022-10-01T09:55:42.134Z,17.10
2022-10-01T09:58:13.585Z,19.60
2022-10-01T10:00:41.954Z,29.25
2022-10-01T10:03:08.765Z,32.80
2022-10-01T10:05:46.567Z,30.20
2022-10-01T10:08:27.944Z,23.63
2022-10-01T10:11:06.030Z,16.63
2022-10-01T10:13:41.281Z,16.67
2022-10-01T10:16:09.533Z,35.47
2022-10-01T10:18:39.434Z,12.30
2022-10-01T10:21:19.431Z,11.60
2022-10-01T10:23:49.364Z,18.03
2022-10-01T10:26:39.063Z,17.60
2022-10-01T10:29:24.234Z,19.95
2022-10-01T10:31:51.562Z,14.20
2022-10-01T10:34:23.669Z,10.23
2022-10-01T10:36:57.290Z,8.80
2022-10-01T10:39:31.300Z,6.75
2022-10-01T10:41:59.795Z,10.27
2022-10-01T10:44:36.411Z,6.88
2022-10-01T10:47:11.031Z,8.70
2022-10-01T10:49:47.182Z,13.27
2022-10-01T10:52:35.105Z,8.10
2022-10-01T10:55:19.328Z,12.73
2022-10-01T10:57:47.067Z,8.13
2022-10-01T11:00:20.766Z,12.50
2022-10-01T11:02:57.691Z,14.07
2022-10-01T11:05:31.864Z,15.70
2022-10-01T11:08:03.065Z,10.27
2022-10-01T11:10:57.994Z,10.73
2022-10-01T11:13:50.664Z,21.90
2022-10-01T11:16:26.984Z,16.63
2022-10-01T11:19:01.246Z,18.23
2022-10-01T11:21:36.905Z,31.42
2022-10-01T11:24:36.911Z,20.20
2022-10-01T11:27:22.794Z,10.35
2022-10-01T11:29:58.646Z,23.50
2022-10-01T11:32:37.492Z,30.98
2022-10-01T11:35:19.562Z,17.33
2022-10-01T11:37:57.321Z,18.00
2022-10-01T11:40:33.229Z,9.10
2022-10-01T11:43:09.359Z,4.70
2022-10-01T11:45:43.406Z,4.72
2022-10-01T11:48:25.873Z,3.65
2022-10-01T11:50:59.056Z,4.38
2022-10-01T11:53:33.970Z,4.55
2022-10-01T11:56:28.964Z,4.93
2022-10-01T11:59:08.150Z,3.72
2022-10-01T12:01:53.772Z,4.18
2022-10-01T12:04:32.826Z,4.63
2022-10-01T12:07:11.001Z,4.30
2022-10-01T12:10:07.106Z,6.90
2022-10-01T12:12:40.514Z,5.88
2022-10-01T12:15:28.583Z,4.68
2022-10-01T12:18:20.746Z,6.97
2022-10-01T12:20:51.085Z,19.38
2022-10-01T12:23:21.733Z,12.80
2022-10-01T12:25:57.816Z,9.23
2022-10-01T12:28:36.916Z,7.13
2022-10-01T12:31:12.483Z,14.20
2022-10-01T12:33:56.187Z,12.05
2022-10-01T12:36:56.555Z,8.23
2022-10-01T12:39:54.386Z,10.23
2022-10-01T12:42:24.137Z,12.70
2022-10-01T12:45:10.282Z,14.13
2022-10-01T12:47:51.793Z,8.02
2022-10-01T12:50:37.149Z,5.93
2022-10-01T12:53:13.777Z,10.90
2022-10-01T12:55:49.587Z,32.47
2022-10-01T12:58:56.741Z,26.13
2022-10-01T13:01:48.511Z,9.18
2022-10-01T13:04:31.082Z,8.87
2022-10-01T13:07:23.011Z,4.28
2022-10-01T13:10:19.210Z,5.43
2022-10-01T13:13:07.753Z,9.88
2022-10-01T13:15:38.413Z,8.25
2022-10-01T13:18:16.091Z,7.93
2022-10-01T13:20:54.079Z,10.05
2022-10-01T13:23:24.084Z,5.70
2022-10-01T13:26:09.524Z,6.32
2022-10-01T13:28:58.251Z,8.45
2022-10-01T13:31:51.572Z,6.30
2022-10-01T13:34:38.413Z,7.75
2022-10-01T13:37:31.205Z,10.05
2022-10-01T13:39:59.417Z,6.70
2022-10-01T13:42:44.523Z,7.65
2022-10-01T13:45:39.442Z,16.27
2022-10-01T13:48:23.898Z,13.65
2022-10-01T13:51:11.649Z,12.25
2022-10-01T13:53:48.765Z,9.20
2022-10-01T13:56:28.952Z,16.65
2022-10-01T13:58:56.204Z,13.70
2022-10-01T14:01:24.331Z,7.45
2022-10-01T14:03:51.160Z,6.60
2022-10-01T14:06:26.870Z,5.70
2022-10-01T14:09:14.852Z,6.53
2022-10-01T14:12:07.907Z,6.70
2022-10-01T14:15:07.381Z,6.80
2022-10-01T14:17:36.235Z,12.70
2022-10-01T14:20:04.569Z,22.58
2022-10-01T14:22:55.343Z,14.38
2022-10-01T14:25:31.383Z,15.47
2022-10-01T14:28:16.479Z,15.90
2022-10-01T14:31:08.938Z,21.02
2022-10-01T14:33:44.782Z,21.50
2022-10-01T14:36:25.730Z,9.32
2022-10-01T14:39:03.995Z,8.77
2022-10-01T14:41:35.010Z,10.85
2022-10-01T14:44:02.230Z,7.80
2022-10-01T14:46:29.028Z,9.07
2022-10-01T14:48:58.504Z,13.40
2022-10-01T14:51:30.994Z,25.87
2022-10-01T14:54:00.022Z,23.80
2022-10-01T14:56:28.201Z,33.13
2022-10-01T14:59:02.834Z,68.15
2022-10-01T15:01:29.813Z,37.33
2022-10-01T15:03:56.560Z,79.80
2022-10-01T15:06:27.994Z,39.63
2022-10-01T15:09:02.299Z,32.63
2022-10-01T15:11:31.762Z,33.25
2022-10-01T15:14:04.998Z,31.70
2022-10-01T15:16:33.356Z,22.20
2022-10-01T15:19:03.813Z,30.98
2022-10-01T15:21:30.488Z,32.38
2022-10-01T15:23:58.010Z,20.02
2022-10-01T15:26:29.836Z,18.42
2022-10-01T15:29:12.711Z,17.90
2022-10-01T15:31:41.009Z,13.07
2022-10-01T15:34:12.226Z,12.95
2022-10-01T15:36:40.695Z,17.38
2022-10-01T15:39:30.143Z,18.25
2022-10-01T15:41:57.636Z,13.97
2022-10-01T15:44:38.633Z,8.80
2022-10-01T15:47:26.583Z,14.88
2022-10-01T15:50:08.800Z,9.05
2022-10-01T15:52:51.738Z,9.65
2022-10-01T15:55:32.355Z,7.50
2022-10-01T15:58:07.836Z,19.48
2022-10-01T16:00:43.741Z,17.70
2022-10-01T16:03:23.258Z,15.48
2022-10-01T16:05:52.710Z,13.10
2022-10-01T16:08:22.032Z,13.20
2022-10-01T16:11:09.725Z,10.68
2022-10-01T16:13:40.966Z,8.63
2022-10-01T16:16:10.410Z,10.07
2022-10-01T16:18:37.584Z,16.17
2022-10-01T16:21:06.810Z,11.07
2022-10-01T16:23:39.661Z,6.85
2022-10-01T16:26:27.071Z,6.82
2022-10-01T16:28:56.407Z,8.15
2022-10-01T16:31:24.955Z,14.60
2022-10-01T16:33:52.140Z,28.30
2022-10-01T16:36:20.639Z,43.42
2022-10-01T16:38:48.233Z,25.40
2022-10-01T16:41:22.181Z,35.90
2022-10-01T16:43:50.579Z,17.48
2022-10-01T16:46:17.695Z,12.00
2022-10-01T16:48:50.471Z,29.45
2022-10-01T16:51:18.388Z,34.53
2022-10-01T16:53:45.851Z,25.73
2022-10-01T16:56:13.559Z,22.48
2022-10-01T16:58:43.128Z,21.73
2022-10-01T17:01:14.081Z,19.27
2022-10-01T17:03:41.655Z,23.50
2022-10-01T17:06:08.455Z,20.77
2022-10-01T17:08:35.098Z,21.83
2022-10-01T17:11:02.762Z,17.83
2022-10-01T17:13:33.980Z,18.40
2022-10-01T17:16:02.340Z,14.32
2022-10-01T17:18:30.034Z,17.58
2022-10-01T17:20:57.235Z,18.38
2022-10-01T17:23:25.639Z,33.07
2022-10-01T17:25:53.213Z,42.38
2022-10-01T17:28:21.037Z,34.80
2022-10-01T17:30:49.579Z,46.63
2022-10-01T17:33:19.581Z,29.60
2022-10-01T17:35:51.922Z,32.53
2022-10-01T17:38:19.835Z,103.72
2022-10-01T17:40:47.637Z,97.38
2022-10-01T17:43:16.396Z,82.85
2022-10-01T17:45:43.918Z,67.32
2022-10-01T17:48:10.901Z,57.67
2022-10-01T17:50:43.391Z,64.85
2022-10-01T17:53:14.897Z,99.50
2022-10-01T17:55:42.509Z,63.75
2022-10-01T17:58:09.934Z,37.28
2022-10-01T18:00:37.279Z,46.20
2022-10-01T18:03:04.133Z,30.73
2022-10-01T18:05:30.959Z,27.55
2022-10-01T18:07:58.322Z,19.00
2022-10-01T18:10:25.098Z,20.75
2022-10-01T18:12:51.754Z,37.93
2022-10-01T18:15:20.768Z,27.10
2022-10-01T18:17:51.967Z,25.60
2022-10-01T18:20:20.828Z,21.38
2022-10-01T18:22:47.897Z,16.55
2022-10-01T18:25:16.050Z,18.90
2022-10-01T18:27:43.628Z,14.27
2022-10-01T18:30:10.828Z,11.73
2022-10-01T18:32:44.954Z,14.90
2022-10-01T18:35:28.191Z,9.18
2022-10-01T18:37:58.418Z,9.20
2022-10-01T18:40:29.173Z,16.55
2022-10-01T18:43:09.472Z,13.70
2022-10-01T18:45:54.726Z,15.80
2022-10-01T18:48:58.711Z,26.30
2022-10-01T18:51:52.069Z,28.53
2022-10-01T18:54:43.492Z,20.48
2022-10-01T18:57:38.257Z,44.83
2022-10-01T19:00:17.357Z,23.58
2022-10-01T19:03:02.571Z,38.25
2022-10-01T19:05:50.619Z,23.60
2022-10-01T19:08:41.627Z,19.52
2022-10-01T19:11:18.282Z,16.67
2022-10-01T19:14:08.416Z,14.23
2022-10-01T19:16:53.189Z,11.85
2022-10-01T19:20:03.774Z,14.03
2022-10-01T19:22:40.047Z,14.27
2022-10-01T19:25:22.096Z,11.07
2022-10-01T19:28:24.304Z,13.25
2022-10-01T19:31:09.479Z,11.15
2022-10-01T19:33:44.362Z,11.57
2022-10-01T19:36:21.730Z,6.82
2022-10-01T19:38:50.989Z,7.43
2022-10-01T19:41:44.454Z,29.25
2022-10-01T19:44:17.190Z,39.05
2022-10-01T19:46:47.359Z,63.57
2022-10-01T19:49:32.862Z,105.20
2022-10-01T19:52:03.420Z,70.57
2022-10-01T19:54:36.396Z,35.83
2022-10-01T19:57:09.734Z,11.80
2022-10-01T19:59:36.438Z,6.87
2022-10-01T20:02:31.297Z,6.45
2022-10-01T20:05:36.107Z,6.28
2022-10-01T20:08:27.747Z,4.90
2022-10-01T20:10:59.425Z,5.38
2022-10-01T20:13:35.594Z,7.00
2022-10-01T20:16:22.387Z,6.30
2022-10-01T20:19:15.880Z,6.63
2022-10-01T20:22:04.780Z,15.00
2022-10-01T20:24:48.105Z,28.80
2022-10-01T20:27:28.612Z,28.73
2022-10-01T20:30:05.174Z,27.95
2022-10-01T20:33:10.183Z,26.23
2022-10-01T20:35:49.214Z,23.38
2022-10-01T20:38:22.701Z,15.60
2022-10-01T20:40:58.486Z,12.33
2022-10-01T20:43:37.206Z,12.70
2022-10-01T20:46:14.226Z,12.65
2022-10-01T20:48:50.224Z,9.88
2022-10-01T20:51:36.234Z,21.42
2022-10-01T20:54:10.935Z,21.30
2022-10-01T20:57:01.872Z,18.42
2022-10-01T20:59:35.242Z,13.02
2022-10-01T21:02:25.346Z,12.60
2022-10-01T21:05:00.512Z,10.57
2022-10-01T21:07:30.578Z,10.20
2022-10-01T21:10:03.056Z,12.63
2022-10-01T21:12:39.629Z,10.35
2022-10-01T21:15:13.953Z,7.63
2022-10-01T21:18:04.292Z,10.43
2022-10-01T21:20:43.192Z,6.63
2022-10-01T21:23:28.521Z,6.28
2022-10-01T21:26:26.501Z,4.50
2022-10-01T21:29:31.348Z,5.00
2022-10-01T21:32:18.108Z,4.35
2022-10-01T21:35:12.924Z,4.67
2022-10-01T21:37:43.104Z,4.22
2022-10-01T21:40:31.779Z,4.38
2022-10-01T21:43:10.870Z,4.00
2022-10-01T21:46:03.998Z,4.47
2022-10-01T21:48:53.834Z,5.07
2022-10-01T21:51:59.177Z,4.40
2022-10-01T21:54:49.492Z,4.18
2022-10-01T21:57:16.496Z,6.95
2022-10-01T22:00:09.874Z,10.65
2022-10-01T22:02:56.431Z,9.27
2022-10-01T22:05:37.924Z,9.10
2022-10-01T22:08:26.581Z,6.32
2022-10-01T22:10:57.729Z,6.03
2022-10-01T22:13:30.822Z,6.10
2022-10-01T22:16:02.449Z,5.57
2022-10-01T22:18:50.831Z,4.28
2022-10-01T22:21:42.995Z,6.30
2022-10-01T22:24:14.078Z,8.77
2022-10-01T22:26:49.070Z,9.05
2022-10-01T22:29:19.549Z,7.53
2022-10-01T22:31:49.555Z,7.35
2022-10-01T22:34:22.393Z,8.20
2022-10-01T22:37:00.109Z,18.13
2022-10-01T22:39:30.721Z,15.88
2022-10-01T22:41:57.559Z,18.10
2022-10-01T22:44:24.459Z,11.48
2022-10-01T22:47:22.042Z,12.27
2022-10-01T22:50:14.802Z,10.35
2022-10-01T22:52:47.677Z,7.57
2022-10-01T22:55:20.629Z,9.13
2022-10-01T22:58:17.631Z,13.43
2022-10-01T23:00:50.987Z,7.88
2022-10-01T23:03:30.450Z,5.20
2022-10-01T23:06:15.392Z,6.30
2022-10-01T23:08:49.682Z,9.27
2022-10-01T23:11:54.149Z,9.57
2022-10-01T23:14:48.997Z,7.60
2022-10-01T23:17:22.768Z,6.95
2022-10-01T23:20:08.205Z,8.35
2022-10-01T23:22:38.110Z,7.00
2022-10-01T23:25:30.257Z,8.05
2022-10-01T23:27:57.097Z,8.68
2022-10-01T23:30:44.649Z,9.02
2022-10-01T23:33:50.757Z,8.63
2022-10-01T23:36:26.637Z,7.37
2022-10-01T23:39:11.593Z,11.70
2022-10-01T23:41:51.089Z,10.48
2022-10-01T23:44:29.650Z,6.72
2022-10-01T23:46:59.235Z,6.68
2022-10-01T23:49:31.214Z,6.43
2022-10-01T23:52:13.222Z,8.52
2022-10-01T23:54:47.492Z,12.35
2022-10-01T23:57:25.728Z,10.02
2022-10-01T23:59:57.532Z,8.98
